Time;durP1;ratioP1;P1;durP2;ratioP2;P2;SDS_P1;SDS_P2;PMS_P1;PMS_P2;Temp;Humidity;BMP_temperature;BMP_pressure;BME280_temperature;BME280_humidity;BME280_pressure;Samples;Min_cycle;Max_cycle;Signal;HPM_P1;HPM_P2
2023/09/28 00:02:33;;;;;;;;;2.00;2.00;;;;;19.58;64.89;100602.53;5060062;28;46222;-89
2023/09/28 00:04:59;;;;;;;;;4.00;3.00;;;;;19.45;65.34;100601.69;5041355;28;45430;-91
2023/09/28 00:07:24;;;;;;;;;1.67;1.67;;;;;19.52;65.18;100607.88;5059452;28;45478;-75
2023/09/28 00:09:50;;;;;;;;;1.00;1.00;;;;;19.51;65.46;100611.38;5057466;28;45303;-74
2023/09/28 00:12:16;;;;;;;;;2.00;2.00;;;;;19.20;66.00;100579.78;5058295;28;45829;-91
2023/09/28 00:14:41;;;;;;;;;1.00;1.00;;;;;19.33;65.90;100608.84;5071593;28;45524;-74
2023/09/28 00:17:09;;;;;;;;;2.00;2.00;;;;;19.39;65.28;100612.34;5059336;28;45426;-74
2023/09/28 00:19:34;;;;;;;;;2.33;1.00;;;;;19.42;65.32;100611.47;5058407;28;45394;-74
2023/09/28 00:22:00;;;;;;;;;2.00;2.00;;;;;19.29;65.64;100592.06;5067135;28;46074;-74
2023/09/28 00:24:26;;;;;;;;;3.67;3.00;;;;;19.30;65.38;100595.59;5063958;28;45466;-74
2023/09/28 00:26:51;;;;;;;;;2.33;2.33;;;;;19.37;65.98;100605.28;5039486;28;45616;-74
2023/09/28 00:29:18;;;;;;;;;2.00;2.00;;;;;19.25;66.22;100593.00;5057609;28;45497;-74
2023/09/28 00:31:44;;;;;;;;;1.00;1.00;;;;;19.24;66.36;100599.19;5057267;28;45583;-74
2023/09/28 00:34:10;;;;;;;;;2.33;2.00;;;;;19.13;67.31;100593.91;5052643;28;45365;-74
2023/09/28 00:36:36;;;;;;;;;2.00;2.00;;;;;19.12;67.10;100600.13;5058168;28;45481;-74
2023/09/28 00:39:03;;;;;;;;;2.67;2.00;;;;;19.13;67.00;100596.56;5076723;28;45568;-85
2023/09/28 00:41:28;;;;;;;;;2.33;2.00;;;;;19.07;67.09;100594.81;5076597;28;46254;-77
2023/09/28 00:43:55;;;;;;;;;2.00;2.00;;;;;19.07;67.21;100591.31;5056892;28;45794;-74
2023/09/28 00:46:21;;;;;;;;;2.33;2.00;;;;;19.14;67.13;100592.16;5056705;28;45637;-73
2023/09/28 00:49:05;;;;;;;;;2.00;1.67;;;;;19.20;66.52;100594.75;5057343;28;45513;-75
2023/09/28 00:51:34;;;;;;;;;2.33;2.00;;;;;19.15;66.23;100568.31;5054455;28;46234;-74
2023/09/28 00:54:00;;;;;;;;;2.00;2.00;;;;;19.19;66.14;100563.88;5057585;28;45526;-75
2023/09/28 00:56:27;;;;;;;;;1.00;1.00;;;;;19.24;66.52;100583.31;5038872;28;45566;-74
2023/09/28 00:58:56;;;;;;;;;1.00;1.00;;;;;19.21;66.35;100578.88;5057581;28;45684;-91
2023/09/28 01:01:24;;;;;;;;;3.00;2.00;;;;;19.10;66.25;100566.56;5056604;28;45412;-74
2023/09/28 01:03:50;;;;;;;;;2.00;1.00;;;;;19.20;66.51;100587.72;5038731;28;45407;-74
2023/09/28 01:06:16;;;;;;;;;2.00;2.00;;;;;19.06;66.39;100579.84;5057626;28;45382;-73
2023/09/28 01:08:42;;;;;;;;;1.00;1.00;;;;;19.05;66.35;100575.41;5057227;28;45501;-74
2023/09/28 01:11:07;;;;;;;;;1.33;1.33;;;;;19.05;66.57;100585.13;5053311;28;45595;-75
2023/09/28 01:13:33;;;;;;;;;1.67;1.67;;;;;19.03;66.79;100577.19;5040393;28;45626;-74
2023/09/28 01:15:59;;;;;;;;;2.33;2.33;;;;;18.97;66.64;100576.34;5042551;28;45490;-74
2023/09/28 01:18:25;;;;;;;;;1.33;1.33;;;;;18.83;66.79;100544.63;5057232;28;45225;-79
2023/09/28 01:20:51;;;;;;;;;1.33;1.33;;;;;19.04;66.69;100583.38;5071189;28;46025;-74
2023/09/28 01:23:18;;;;;;;;;1.00;1.00;;;;;18.81;66.69;100533.19;5057456;28;45289;-74
2023/09/28 01:25:47;;;;;;;;;2.33;1.00;;;;;19.04;66.83;100575.44;5038507;28;45520;-75
2023/09/28 01:28:16;;;;;;;;;2.00;2.00;;;;;19.08;66.67;100569.25;5057170;28;45613;-91
2023/09/28 01:30:43;;;;;;;;;2.00;2.00;;;;;19.03;67.09;100573.66;5050950;28;46977;-75
2023/09/28 01:33:09;;;;;;;;;1.67;1.67;;;;;18.90;67.12;100558.72;5075112;28;45292;-74
2023/09/28 01:35:35;;;;;;;;;1.00;1.00;;;;;18.94;67.23;100564.00;5076633;28;45547;-90
2023/09/28 01:38:21;;;;;;;;;3.00;3.00;;;;;18.93;66.99;100567.53;5055083;28;45629;-89
2023/09/28 01:40:49;;;;;;;;;2.33;2.00;;;;;18.95;67.09;100568.41;5058541;28;45574;-91
2023/09/28 01:43:17;;;;;;;;;2.00;2.00;;;;;18.97;66.84;100561.34;5052977;28;46043;-91
2023/09/28 01:45:44;;;;;;;;;2.33;2.33;;;;;18.92;66.76;100541.06;5059426;28;46508;-91
2023/09/28 01:48:09;;;;;;;;;7.00;7.00;;;;;19.01;67.36;100554.28;5062936;28;45453;-91
2023/09/28 01:50:35;;;;;;;;;6.00;5.75;;;;;18.85;66.69;100550.81;5058729;28;46210;-91
2023/09/28 01:53:01;;;;;;;;;4.00;3.00;;;;;18.68;66.91;100504.09;5059591;28;45394;-91
2023/09/28 01:55:27;;;;;;;;;3.33;2.67;;;;;18.96;66.85;100545.44;5066097;28;45541;-90
2023/09/28 01:57:52;;;;;;;;;3.00;3.00;;;;;18.90;66.93;100540.19;5038560;28;45471;-75
2023/09/28 02:00:20;;;;;;;;;3.00;2.00;;;;;19.02;66.83;100546.31;5057731;28;45331;-74
2023/09/28 02:02:53;;;;;;;;;3.00;2.00;;;;;19.02;67.29;100548.06;5070180;28;45280;-75
2023/09/28 02:05:21;;;;;;;;;2.33;2.33;;;;;18.91;66.98;100521.66;5056377;28;45356;-74
2023/09/28 02:07:48;;;;;;;;;3.00;2.00;;;;;19.02;66.79;100543.69;5057163;28;45367;-74
2023/09/28 02:10:14;;;;;;;;;2.33;1.67;;;;;18.97;66.54;100542.81;5055573;28;46262;-74
2023/09/28 02:12:43;;;;;;;;;3.00;2.00;;;;;18.93;66.99;100532.25;5060636;28;45777;-74
2023/09/28 02:15:10;;;;;;;;;3.00;2.67;;;;;18.84;67.15;100539.34;5057793;28;45447;-74
2023/09/28 02:17:38;;;;;;;;;3.00;2.33;;;;;18.95;67.37;100551.66;5062864;28;45510;-74
2023/09/28 02:20:13;;;;;;;;;2.00;2.00;;;;;18.87;67.12;100522.56;5071655;28;46779;-74
2023/09/28 02:22:43;;;;;;;;;2.33;2.00;;;;;18.94;66.71;100524.31;5055613;28;45461;-74
2023/09/28 02:25:18;;;;;;;;;2.00;1.67;;;;;19.00;66.83;100528.66;5056420;28;45624;-75
2023/09/28 02:27:45;;;;;;;;;0.00;0.00;;;;;18.97;66.58;100518.97;5056762;28;45343;-75
2023/09/28 02:30:13;;;;;;;;;2.00;1.00;;;;;18.93;66.85;100514.59;5056279;28;45552;-75
2023/09/28 02:32:39;;;;;;;;;1.00;1.00;;;;;18.95;67.20;100518.09;5056064;28;45327;-74
2023/09/28 02:35:07;;;;;;;;;0.67;0.67;;;;;18.90;67.47;100511.06;5049091;28;45503;-74
2023/09/28 02:37:35;;;;;;;;;3.67;2.67;;;;;18.81;67.32;100512.88;5059610;28;45529;-76
2023/09/28 02:40:05;;;;;;;;;4.00;3.00;;;;;18.66;67.30;100511.16;5047525;28;46339;-73
2023/09/28 02:42:32;;;;;;;;;3.00;3.00;;;;;18.67;67.76;100515.53;5057836;28;45454;-74
2023/09/28 02:44:58;;;;;;;;;4.67;4.00;;;;;18.68;67.33;100513.78;5068547;28;45348;-90
2023/09/28 02:47:24;;;;;;;;;7.67;6.67;;;;;18.71;67.65;100521.72;5078392;28;45374;-85
2023/09/28 02:49:51;;;;;;;;;5.00;4.00;;;;;18.57;68.35;100515.59;5071506;28;45713;-76
2023/09/28 02:52:17;;;;;;;;;1.67;1.67;;;;;18.52;68.52;100520.00;5060506;28;45737;-88
2023/09/28 02:54:44;;;;;;;;;2.00;1.00;;;;;18.52;68.39;100512.94;5060971;28;45371;-74
2023/09/28 02:57:10;;;;;;;;;1.00;1.00;;;;;18.49;68.24;100503.25;5074172;28;45766;-74
2023/09/28 02:59:37;;;;;;;;;2.00;2.00;;;;;18.58;68.10;100514.69;5068069;28;46233;-91
2023/09/28 03:02:09;;;;;;;;;1.33;1.33;;;;;18.57;68.13;100508.53;5065875;28;45352;-74
2023/09/28 03:04:35;;;;;;;;;2.00;1.33;;;;;18.48;68.42;100488.28;5067850;28;45898;-91
2023/09/28 03:07:02;;;;;;;;;1.33;1.33;;;;;18.49;68.26;100495.31;5073460;28;45293;-82
2023/09/28 03:09:29;;;;;;;;;1.00;1.00;;;;;18.53;68.40;100492.69;5066086;28;46095;-83
2023/09/28 03:11:55;;;;;;;;;1.00;1.00;;;;;18.49;68.18;100483.88;5047206;28;45525;-73
2023/09/28 03:14:23;;;;;;;;;3.33;2.00;;;;;18.46;68.46;100491.81;5067395;28;45400;-89
2023/09/28 03:16:53;;;;;;;;;2.00;1.00;;;;;18.54;68.37;100492.66;5063989;28;45330;-85
2023/09/28 03:19:20;;;;;;;;;1.33;1.00;;;;;18.59;68.09;100496.19;5091734;28;45343;-76
2023/09/28 03:21:46;;;;;;;;;1.33;1.00;;;;;18.51;67.54;100475.94;5069398;28;45362;-78
2023/09/28 03:24:15;;;;;;;;;1.00;0.00;;;;;18.57;67.50;100483.84;5073573;28;45405;-77
2023/09/28 03:26:40;;;;;;;;;1.00;1.00;;;;;18.56;67.69;100492.66;5036659;28;45340;-90
2023/09/28 03:29:07;;;;;;;;;1.67;1.00;;;;;18.43;67.67;100473.31;5067566;28;46127;-89
2023/09/28 03:31:34;;;;;;;;;1.00;1.00;;;;;18.51;67.86;100482.09;5065446;28;45618;-86
2023/09/28 03:34:00;;;;;;;;;1.00;1.00;;;;;18.48;67.98;100490.94;5065319;28;45361;-79
2023/09/28 03:36:30;;;;;;;;;1.00;1.00;;;;;18.48;68.16;100487.38;5064774;28;45308;-76
2023/09/28 03:38:57;;;;;;;;;1.00;1.00;;;;;18.44;68.28;100486.53;5063520;28;45415;-75
2023/09/28 03:41:23;;;;;;;;;1.33;1.33;;;;;18.47;68.27;100481.22;5062011;28;45320;-73
2023/09/28 03:43:49;;;;;;;;;1.00;1.00;;;;;18.36;67.91;100464.50;5058934;28;45500;-73
2023/09/28 03:46:19;;;;;;;;;2.00;2.00;;;;;18.49;67.65;100484.75;5074032;28;45523;-88
2023/09/28 03:48:45;;;;;;;;;1.33;1.00;;;;;18.46;68.10;100483.88;5078504;28;45430;-88
2023/09/28 03:51:11;;;;;;;;;1.67;1.00;;;;;18.36;68.45;100479.50;5078697;28;45405;-88
2023/09/28 03:53:40;;;;;;;;;1.00;1.00;;;;;18.24;68.35;100483.06;5078835;28;45419;-84
2023/09/28 03:56:07;;;;;;;;;1.33;1.00;;;;;18.26;68.25;100479.53;5078960;28;45358;-88
2023/09/28 03:58:33;;;;;;;;;1.33;1.00;;;;;18.28;68.54;100472.50;5078189;28;45421;-82
2023/09/28 04:00:59;;;;;;;;;2.00;1.00;;;;;18.16;68.50;100463.69;5068892;28;46163;-91
2023/09/28 04:03:25;;;;;;;;;1.00;1.00;;;;;18.29;68.54;100476.00;5060190;28;45446;-75
2023/09/28 04:05:51;;;;;;;;;1.00;1.00;;;;;18.34;68.43;100475.97;5042941;28;45528;-78
2023/09/28 04:08:16;;;;;;;;;0.00;0.00;;;;;18.35;68.19;100480.41;5059954;28;45311;-87
2023/09/28 04:10:42;;;;;;;;;0.00;0.00;;;;;18.35;67.98;100478.63;5078661;28;45421;-90
2023/09/28 04:13:08;;;;;;;;;0.33;0.33;;;;;18.31;67.95;100468.94;5076835;28;45328;-78
2023/09/28 04:15:34;;;;;;;;;1.67;1.00;;;;;18.28;67.92;100479.50;5059753;28;45613;-75
2023/09/28 04:18:00;;;;;;;;;2.00;1.00;;;;;18.24;68.27;100467.19;5077226;28;45730;-75
2023/09/28 04:20:26;;;;;;;;;1.00;1.00;;;;;18.14;68.55;100458.41;5077781;28;45497;-75
2023/09/28 04:22:52;;;;;;;;;0.33;0.33;;;;;18.02;68.72;100437.28;5061858;28;45565;-75
2023/09/28 04:25:20;;;;;;;;;1.00;1.00;;;;;18.06;69.38;100457.53;5042657;28;45635;-75
2023/09/28 04:27:46;;;;;;;;;1.00;1.00;;;;;18.11;68.67;100468.13;5056119;28;46460;-75
2023/09/28 04:30:13;;;;;;;;;2.00;1.33;;;;;18.02;68.94;100451.38;5058221;28;45424;-74
2023/09/28 04:32:38;;;;;;;;;1.00;1.00;;;;;18.05;69.21;100461.09;5055444;28;45441;-84
2023/09/28 04:35:06;;;;;;;;;1.00;1.00;;;;;17.99;69.40;100448.75;5073509;28;45446;-75
2023/09/28 04:37:32;;;;;;;;;1.00;1.00;;;;;18.07;68.74;100459.31;5057630;28;45651;-75
2023/09/28 04:39:58;;;;;;;;;1.00;1.00;;;;;18.04;68.31;100441.69;5050696;28;45492;-91
2023/09/28 04:42:25;;;;;;;;;1.00;1.00;;;;;18.04;68.36;100446.09;5044121;28;45480;-88
2023/09/28 04:44:50;;;;;;;;;1.00;0.00;;;;;18.04;68.82;100439.03;5056333;28;45591;-75
2023/09/28 04:47:17;;;;;;;;;1.00;1.00;;;;;18.04;68.55;100444.31;5057188;28;45886;-75
2023/09/28 04:49:43;;;;;;;;;2.00;1.00;;;;;18.00;68.78;100429.34;5056566;28;45418;-75
2023/09/28 04:52:13;;;;;;;;;1.00;1.00;;;;;18.05;68.33;100438.16;5057739;28;45593;-75
2023/09/28 04:54:39;;;;;;;;;2.67;2.00;;;;;18.04;68.26;100438.16;5057903;28;45463;-89
2023/09/28 04:57:05;;;;;;;;;1.67;1.00;;;;;17.93;68.44;100427.63;5056371;28;45341;-75
2023/09/28 04:59:36;;;;;;;;;2.00;1.00;;;;;18.02;68.44;100434.66;5057483;28;45509;-87
2023/09/28 05:02:02;;;;;;;;;1.33;1.33;;;;;18.05;68.03;100439.94;5047163;28;45435;-91
2023/09/28 05:04:28;;;;;;;;;0.33;0.00;;;;;18.03;67.97;100425.84;5053129;27;45498;-85
2023/09/28 05:06:54;;;;;;;;;1.00;1.00;;;;;18.07;68.25;100439.03;5065426;27;46708;-75
2023/09/28 05:09:20;;;;;;;;;2.00;2.00;;;;;18.02;68.17;100430.22;5085373;27;45473;-91
2023/09/28 05:11:45;;;;;;;;;2.00;2.00;;;;;18.05;68.33;100443.44;5086756;27;45390;-90
2023/09/28 05:14:11;;;;;;;;;1.00;1.00;;;;;17.74;68.66;100387.09;5083811;27;45497;-75
2023/09/28 05:16:37;;;;;;;;;2.00;1.33;;;;;17.97;68.82;100441.72;5084611;27;46127;-73
2023/09/28 05:19:03;;;;;;;;;1.00;1.00;;;;;17.85;69.36;100438.22;5085400;27;45540;-74
2023/09/28 05:21:28;;;;;;;;;1.00;1.00;;;;;17.79;70.09;100445.25;5086998;27;46161;-74
2023/09/28 05:23:54;;;;;;;;;1.00;1.00;;;;;17.72;69.81;100432.91;5070427;27;45514;-74
2023/09/28 05:26:20;;;;;;;;;0.67;0.67;;;;;17.78;69.66;100428.47;5056511;28;47880;-78
2023/09/28 05:28:45;;;;;;;;;2.00;1.00;;;;;17.83;69.82;100434.69;5040511;28;45729;-89
2023/09/28 05:31:11;;;;;;;;;2.00;1.00;;;;;17.83;69.73;100436.44;5047496;28;45320;-76
2023/09/28 05:33:37;;;;;;;;;2.00;2.00;;;;;17.88;69.33;100437.31;5046409;28;45581;-74
2023/09/28 05:36:03;;;;;;;;;1.00;1.00;;;;;17.86;69.39;100420.59;5056907;28;45515;-75
2023/09/28 05:38:29;;;;;;;;;2.00;1.00;;;;;17.94;69.37;100431.13;5038476;28;46000;-89
2023/09/28 05:40:55;;;;;;;;;2.00;2.00;;;;;17.99;69.10;100439.94;5039423;28;45505;-88
2023/09/28 05:43:22;;;;;;;;;1.33;1.00;;;;;17.91;69.01;100421.47;5055496;28;46751;-86
2023/09/28 05:45:48;;;;;;;;;2.00;1.33;;;;;17.74;68.91;100395.03;5038877;28;45477;-87
2023/09/28 05:48:14;;;;;;;;;1.00;1.00;;;;;17.85;68.95;100421.47;5059578;28;45528;-75
2023/09/28 05:50:40;;;;;;;;;1.33;1.33;;;;;17.86;68.94;100433.78;5072877;28;45599;-84
2023/09/28 05:53:06;;;;;;;;;1.33;1.33;;;;;17.93;68.82;100442.63;5076991;28;45450;-78
2023/09/28 05:55:32;;;;;;;;;1.67;1.67;;;;;17.74;68.82;100415.28;5075774;28;45474;-85
2023/09/28 05:57:57;;;;;;;;;3.00;1.00;;;;;17.83;68.84;100425.84;5055485;28;45293;-78
2023/09/28 06:00:23;;;;;;;;;1.00;1.00;;;;;17.93;68.74;100440.84;5052447;28;45493;-85
2023/09/28 06:02:48;;;;;;;;;1.33;1.33;;;;;17.90;68.91;100424.97;5057726;28;45516;-77
2023/09/28 06:05:14;;;;;;;;;2.67;2.67;;;;;17.95;68.90;100438.19;5056704;28;45553;-78
2023/09/28 06:07:40;;;;;;;;;1.33;1.33;;;;;17.92;68.90;100417.91;5056978;28;45537;-85
2023/09/28 06:10:08;;;;;;;;;2.00;2.00;;;;;18.01;69.02;100424.97;5060146;28;45352;-86
2023/09/28 06:12:34;;;;;;;;;2.00;2.00;;;;;18.11;69.00;100436.41;5041926;28;45506;-85
2023/09/28 06:15:00;;;;;;;;;3.00;3.00;;;;;18.17;69.04;100434.63;5060014;28;46710;-85
2023/09/28 06:17:26;;;;;;;;;3.33;2.00;;;;;18.12;68.71;100419.66;5059612;28;45473;-79
2023/09/28 06:19:51;;;;;;;;;3.00;3.00;;;;;18.20;68.55;100417.84;5059944;28;45386;-77
2023/09/28 06:22:17;;;;;;;;;2.00;2.00;;;;;18.29;68.52;100431.06;5059225;28;45444;-78
2023/09/28 06:24:43;;;;;;;;;2.00;2.00;;;;;18.34;68.82;100428.38;5074297;28;46371;-86
2023/09/28 06:27:08;;;;;;;;;4.00;3.00;;;;;18.38;68.31;100433.66;5068387;28;45360;-78
2023/09/28 06:29:34;;;;;;;;;2.00;2.00;;;;;18.08;68.18;100376.47;5065934;28;45525;-87
2023/09/28 06:32:03;;;;;;;;;3.67;2.00;;;;;18.42;68.37;100422.19;5059213;28;45503;-77
2023/09/28 06:34:28;;;;;;;;;2.00;2.00;;;;;18.54;68.12;100429.16;5041500;28;46823;-78
2023/09/28 06:36:54;;;;;;;;;2.00;2.00;;;;;18.60;67.55;100428.25;5059448;28;45491;-80
2023/09/28 06:39:20;;;;;;;;;2.00;1.67;;;;;18.53;67.46;100398.31;5059826;28;45186;-84
2023/09/28 06:41:45;;;;;;;;;3.00;2.67;;;;;18.69;67.08;100415.00;5059602;28;45439;-78
2023/09/28 06:44:11;;;;;;;;;2.67;2.00;;;;;18.80;67.24;100413.22;5059797;28;46098;-79
2023/09/28 06:46:37;;;;;;;;;3.67;3.00;;;;;18.93;67.07;100415.78;5080512;27;45417;-87
2023/09/28 06:49:05;;;;;;;;;3.00;3.00;;;;;19.10;66.69;100413.00;5080885;28;45683;-78
2023/09/28 06:51:32;;;;;;;;;5.00;4.00;;;;;19.11;65.65;100398.88;5063432;28;45418;-82
2023/09/28 06:53:59;;;;;;;;;2.00;2.00;;;;;19.40;65.14;100419.84;5057556;28;47030;-78
2023/09/28 06:56:26;;;;;;;;;2.00;2.00;;;;;19.28;64.99;100395.22;5049149;28;45442;-84
2023/09/28 06:58:52;;;;;;;;;2.00;2.00;;;;;19.45;65.02;100404.78;5067098;27;45497;-78
2023/09/28 07:01:18;;;;;;;;;2.00;2.00;;;;;19.52;64.72;100403.84;5059238;28;45470;-81
2023/09/28 07:03:44;;;;;;;;;2.67;2.67;;;;;19.76;64.21;100336.50;5058479;28;46065;-78
2023/09/28 07:06:10;;;;;;;;;5.33;3.33;;;;;21.80;59.93;100404.31;5065847;28;45631;-78
2023/09/28 07:08:35;;;;;;;;;2.33;2.00;;;;;23.50;56.19;100403.34;5078930;28;45275;-78
2023/09/28 07:11:01;;;;;;;;;4.00;4.00;;;;;24.91;52.84;100388.69;5064216;28;45515;-78
2023/09/28 07:13:27;;;;;;;;;5.67;5.00;;;;;25.91;50.66;100385.34;5064466;28;45598;-79
2023/09/28 07:15:52;;;;;;;;;5.00;5.00;;;;;26.88;48.82;100389.75;5058382;28;45284;-87
2023/09/28 07:18:18;;;;;;;;;6.33;6.33;;;;;27.73;45.54;100378.16;5059325;28;45319;-79
2023/09/28 07:20:44;;;;;;;;;4.00;4.00;;;;;28.46;42.85;100373.09;5058732;28;45566;-79
2023/09/28 07:23:09;;;;;;;;;10.67;10.67;;;;;29.01;43.18;100391.09;5058138;28;45931;-86
2023/09/28 07:25:35;;;;;;;;;4.00;4.00;;;;;29.72;41.26;100380.38;5058239;28;45466;-83
2023/09/28 07:28:01;;;;;;;;;2.33;2.33;;;;;30.10;39.73;100372.06;5057196;28;45394;-79
2023/09/28 07:30:27;;;;;;;;;1.33;1.33;;;;;30.69;37.78;100383.25;5059557;28;45552;-79
2023/09/28 07:32:53;;;;;;;;;3.00;3.00;;;;;31.41;37.78;100381.78;5058404;28;45305;-79
2023/09/28 07:35:19;;;;;;;;;5.00;5.00;;;;;32.23;36.18;100385.84;5040529;28;45387;-79
2023/09/28 07:37:45;;;;;;;;;3.00;2.00;;;;;32.28;36.81;100383.69;5058616;28;45450;-88
2023/09/28 07:40:12;;;;;;;;;3.00;2.00;;;;;32.87;35.34;100374.56;5040779;28;45549;-79
2023/09/28 07:42:43;;;;;;;;;3.00;2.00;;;;;33.53;35.16;100378.25;5058949;28;45583;-86
2023/09/28 07:45:18;;;;;;;;;2.00;2.00;;;;;33.71;34.65;100375.28;5074615;27;45529;-80
2023/09/28 07:47:44;;;;;;;;;12.33;12.33;;;;;34.06;34.25;100373.66;5056343;28;45351;-79
2023/09/28 07:50:14;;;;;;;;;3.00;3.00;;;;;34.59;34.28;100376.19;5040202;28;45521;-80
2023/09/28 07:52:43;;;;;;;;;4.33;4.00;;;;;35.38;33.25;100384.84;5057842;28;46522;-80
2023/09/28 07:55:11;;;;;;;;;4.67;4.00;;;;;35.94;32.49;100367.81;5057638;28;45493;-79
2023/09/28 07:57:37;;;;;;;;;3.67;3.67;;;;;36.44;32.30;100364.75;5059534;28;45507;-79
2023/09/28 08:00:04;;;;;;;;;4.00;4.00;;;;;36.93;31.12;100370.72;5052109;28;45663;-87
2023/09/28 08:02:30;;;;;;;;;4.00;4.00;;;;;37.20;30.86;100363.00;5057492;28;45623;-79
2023/09/28 08:04:56;;;;;;;;;2.00;2.00;;;;;37.62;30.09;100373.09;5058036;28;45416;-89
2023/09/28 08:07:23;;;;;;;;;2.00;2.00;;;;;37.99;29.50;100372.59;5058198;28;45527;-79
2023/09/28 08:09:49;;;;;;;;;1.00;1.00;;;;;38.39;29.56;100371.78;5047164;28;45631;-78
2023/09/28 08:12:14;;;;;;;;;3.67;3.33;;;;;38.61;29.51;100361.69;5048112;28;46177;-79
2023/09/28 08:14:40;;;;;;;;;3.00;3.00;;;;;39.09;29.22;100377.31;5057337;28;45541;-79
2023/09/28 08:17:06;;;;;;;;;4.67;3.67;;;;;39.47;29.25;100386.53;5057174;28;45391;-90
2023/09/28 08:19:32;;;;;;;;;3.67;3.00;;;;;39.86;29.13;100375.53;5045438;28;45633;-79
2023/09/28 08:21:57;;;;;;;;;4.67;4.67;;;;;40.13;28.60;100377.47;5058362;28;45423;-79
2023/09/28 08:24:23;;;;;;;;;5.67;5.00;;;;;40.29;28.31;100372.25;5057982;28;45167;-91
2023/09/28 08:26:49;;;;;;;;;5.00;5.00;;;;;40.61;28.15;100378.28;5057476;28;45328;-80
2023/09/28 08:29:15;;;;;;;;;4.67;4.00;;;;;40.65;27.40;100376.97;5062402;28;45419;-81
2023/09/28 08:31:40;;;;;;;;;4.00;4.00;;;;;41.08;26.21;100370.78;5058030;28;45411;-79
2023/09/28 08:34:08;;;;;;;;;4.00;4.00;;;;;41.29;25.38;100365.03;5041704;28;45443;-79
2023/09/28 08:36:33;;;;;;;;;5.00;5.00;;;;;41.52;24.95;100365.34;5055589;28;45374;-79
2023/09/28 08:38:59;;;;;;;;;4.00;4.00;;;;;42.00;24.09;100371.38;5058109;28;45486;-82
2023/09/28 08:41:43;;;;;;;;;4.00;4.00;;;;;42.20;23.36;100350.09;5049414;28;47427;-75
2023/09/28 08:44:09;;;;;;;;;4.00;4.00;;;;;42.30;23.16;100366.41;5066178;28;45506;-86
2023/09/28 08:46:39;;;;;;;;;3.00;3.00;;;;;42.29;23.47;100370.19;5046154;28;45743;-77
2023/09/28 08:49:14;;;;;;;;;3.00;3.00;;;;;42.59;25.33;100377.00;5057002;28;45413;-86
2023/09/28 08:51:42;;;;;;;;;3.67;3.67;;;;;42.71;23.53;100361.09;5039705;28;47131;-88
2023/09/28 08:54:08;;;;;;;;;5.00;4.00;;;;;42.66;23.93;100339.63;5057051;28;45295;-76
2023/09/28 08:56:39;;;;;;;;;29.25;27.25;;;;;42.62;23.13;100362.09;5059882;28;45327;-74
2023/09/28 08:59:05;;;;;;;;;5.67;5.67;;;;;42.44;24.26;100356.66;5044108;28;45512;-76
2023/09/28 09:01:32;;;;;;;;;5.00;5.00;;;;;42.38;24.09;100365.56;5058278;28;45503;-78
2023/09/28 09:03:58;;;;;;;;;5.33;5.33;;;;;42.42;24.38;100365.09;5067019;28;45373;-75
2023/09/28 09:06:28;;;;;;;;;3.00;3.00;;;;;42.37;24.31;100363.88;5057409;28;45537;-76
2023/09/28 09:09:00;;;;;;;;;3.67;3.67;;;;;42.11;24.17;100364.78;5057391;28;45419;-75
2023/09/28 09:11:27;;;;;;;;;4.67;4.00;;;;;42.11;24.41;100362.03;5057325;28;45434;-75
2023/09/28 09:13:54;;;;;;;;;3.67;3.67;;;;;42.04;24.85;100364.59;5067470;28;45450;-85
2023/09/28 09:16:25;;;;;;;;;5.00;5.00;;;;;41.78;24.69;100355.47;5081483;28;45247;-81
2023/09/28 09:18:53;;;;;;;;;5.67;4.33;;;;;41.57;24.62;100356.69;5077291;28;45489;-75
2023/09/28 09:21:19;;;;;;;;;3.00;2.67;;;;;41.53;25.16;100364.34;5058226;28;46187;-78
2023/09/28 09:24:10;;;;;;;;;4.00;4.00;;;;;41.65;24.09;100355.91;5059541;28;45579;-80
2023/09/28 09:26:43;;;;;;;;;5.33;5.33;;;;;41.77;24.32;100340.91;5058076;28;45502;-77
2023/09/28 09:29:10;;;;;;;;;6.00;5.33;;;;;41.86;24.50;100366.47;5063352;28;45460;-77
2023/09/28 09:31:38;;;;;;;;;4.33;4.33;;;;;41.58;23.90;100358.38;5071115;28;45508;-75
2023/09/28 09:34:05;;;;;;;;;6.00;6.00;;;;;41.56;24.28;100357.69;5054218;28;45410;-76
2023/09/28 09:36:31;;;;;;;;;1.67;1.67;;;;;41.53;25.45;100342.41;5056225;28;45265;-78
2023/09/28 09:38:58;;;;;;;;;4.67;4.33;;;;;41.50;23.66;100350.94;5069239;28;45569;-78
2023/09/28 09:41:24;;;;;;;;;4.00;4.00;;;;;41.38;24.37;100351.38;5056761;28;46715;-81
2023/09/28 09:43:51;;;;;;;;;3.67;3.67;;;;;41.34;24.44;100327.00;5072366;28;45436;-75
2023/09/28 09:46:20;;;;;;;;;7.00;7.00;;;;;41.47;24.04;100350.44;5072871;28;45477;-77
2023/09/28 09:48:46;;;;;;;;;3.00;3.00;;;;;41.36;24.54;100351.53;5072711;28;45704;-77
2023/09/28 09:51:14;;;;;;;;;4.00;4.00;;;;;41.48;23.73;100358.47;5062306;28;45556;-76
2023/09/28 09:53:41;;;;;;;;;4.00;4.00;;;;;41.34;24.12;100362.66;5075561;27;45468;-76
2023/09/28 09:56:08;;;;;;;;;4.00;4.00;;;;;41.28;24.02;100348.72;5057079;28;45504;-76
2023/09/28 09:58:42;;;;;;;;;4.00;3.00;;;;;41.11;24.18;100350.44;5080421;28;45268;-76
2023/09/28 10:01:13;;;;;;;;;4.00;4.00;;;;;40.77;25.09;100329.22;5074195;28;45298;-77
2023/09/28 10:03:47;;;;;;;;;6.00;6.00;;;;;40.78;25.52;100347.38;5085832;28;44708;-78
2023/09/28 10:06:16;;;;;;;;;5.00;4.67;;;;;40.86;24.32;100352.06;5078339;28;45405;-89
2023/09/28 10:08:45;;;;;;;;;3.00;3.00;;;;;40.52;24.91;100345.34;5076589;28;45849;-90
2023/09/28 10:11:12;;;;;;;;;5.67;5.00;;;;;40.27;25.96;100335.09;5064769;28;45668;-76
2023/09/28 10:13:38;;;;;;;;;4.00;4.00;;;;;40.50;25.34;100344.63;5086415;28;45479;-84
2023/09/28 10:16:07;;;;;;;;;6.00;5.33;;;;;40.37;25.52;100327.72;5082070;28;45341;-78
2023/09/28 10:18:36;;;;;;;;;4.00;4.00;;;;;40.39;26.19;100333.91;5079825;28;45490;-87
2023/09/28 10:21:02;;;;;;;;;4.00;4.00;;;;;40.52;25.08;100339.88;5092565;27;47193;-79
2023/09/28 10:23:29;;;;;;;;;4.33;4.33;;;;;40.36;25.41;100332.31;5093009;27;45423;-84
2023/09/28 10:26:03;;;;;;;;;10.00;10.00;;;;;40.14;25.57;100335.44;5071563;28;45177;-88
2023/09/28 10:28:29;;;;;;;;;4.00;4.00;;;;;40.31;26.10;100336.53;5038445;28;45455;-86
2023/09/28 10:31:07;;;;;;;;;5.33;4.00;;;;;40.34;25.53;100339.84;5037528;28;46123;-91
2023/09/28 10:33:33;;;;;;;;;3.67;3.67;;;;;40.20;26.38;100323.88;5038623;28;45423;-82
2023/09/28 10:36:13;;;;;;;;;4.33;4.33;;;;;40.02;25.72;100337.50;5055921;28;45375;-76
2023/09/28 10:38:41;;;;;;;;;4.67;4.33;;;;;39.93;26.14;100343.88;5059376;28;45526;-83
2023/09/28 10:41:08;;;;;;;;;4.33;4.33;;;;;39.58;26.39;100307.13;5046021;28;47927;-76
2023/09/28 10:43:42;;;;;;;;;5.00;5.00;;;;;39.66;27.01;100336.47;5058382;28;45553;-76
2023/09/28 10:46:09;;;;;;;;;4.33;4.33;;;;;39.52;26.04;100333.16;5076316;28;45480;-76
2023/09/28 10:48:41;;;;;;;;;5.67;5.00;;;;;39.42;26.52;100345.09;5058203;28;45816;-76
2023/09/28 10:51:18;;;;;;;;;4.00;4.00;;;;;39.33;26.56;100346.81;5058131;28;46796;-84
2023/09/28 10:53:45;;;;;;;;;4.33;4.33;;;;;39.00;25.99;100346.28;5079202;28;45456;-79
2023/09/28 10:56:11;;;;;;;;;5.67;4.67;;;;;38.43;26.56;100335.03;5079358;28;45738;-84
2023/09/28 10:58:38;;;;;;;;;4.00;4.00;;;;;38.11;26.85;100338.81;5061884;28;45597;-90
2023/09/28 11:01:06;;;;;;;;;5.00;5.00;;;;;37.88;27.68;100345.41;5081313;28;45307;-91
2023/09/28 11:03:36;;;;;;;;;4.00;4.00;;;;;37.54;28.03;100340.16;5080110;27;45420;-81
2023/09/28 11:06:03;;;;;;;;;5.00;4.67;;;;;37.22;27.40;100301.06;5080143;28;45347;-75
2023/09/28 11:08:32;;;;;;;;;5.00;4.67;;;;;37.39;28.03;100343.22;5079874;28;45378;-90
2023/09/28 11:11:01;;;;;;;;;5.00;4.33;;;;;37.06;28.38;100338.75;5079373;27;45481;-84
2023/09/28 11:13:27;;;;;;;;;4.00;4.00;;;;;36.70;29.32;100334.56;5079793;28;45479;-77
2023/09/28 11:15:53;;;;;;;;;5.00;5.00;;;;;36.57;29.19;100335.56;5079634;28;45407;-76
2023/09/28 11:18:21;;;;;;;;;5.00;4.67;;;;;36.46;28.99;100329.28;5079614;28;45492;-76
2023/09/28 11:20:47;;;;;;;;;5.67;5.67;;;;;36.39;29.70;100339.78;5079054;28;45423;-75
2023/09/28 11:23:13;;;;;;;;;6.67;6.00;;;;;36.23;29.25;100326.56;5079405;28;45439;-77
2023/09/28 11:25:44;;;;;;;;;13.33;10.00;;;;;36.01;29.74;100327.41;5069647;28;45526;-75